Time;durP1;ratioP1;P1;durP2;ratioP2;P2;SDS_P1;SDS_P2;PMS_P1;PMS_P2;Temp;Humidity;BMP_temperature;BMP_pressure;BME280_temperature;BME280_humidity;BME280_pressure;Samples;Min_cycle;Max_cycle;Signal;HPM_P1;HPM_P2
2022/04/17 00:00:27;;;;;;;6.27;3.07;;;;;;;5.48;54.78;102962.59;5022209;28;20251;-52
2022/04/17 00:02:53;;;;;;;3.10;2.80;;;;;;;5.46;54.03;102966.78;5035103;28;20244;-53
2022/04/17 00:05:21;;;;;;;4.00;3.70;;;;;;;5.46;54.42;102964.19;5025493;28;20295;-54
2022/04/17 00:07:48;;;;;;;3.40;3.10;;;;;;;5.48;54.37;102962.59;5024064;28;20267;-53
2022/04/17 00:10:14;;;;;;;3.50;3.20;;;;;;;5.43;54.23;102964.00;5026523;28;20607;-52
2022/04/17 00:12:41;;;;;;;6.47;3.67;;;;;;;5.43;54.79;102961.41;5029939;28;20902;-53
2022/04/17 00:15:09;;;;;;;5.60;3.77;;;;;;;5.42;54.64;102960.53;5026291;28;20387;-53
2022/04/17 00:17:37;;;;;;;3.90;3.57;;;;;;;5.42;54.64;102968.34;5021903;28;20260;-52
2022/04/17 00:20:04;;;;;;;3.97;3.10;;;;;;;5.44;54.86;102966.72;5024465;28;20228;-53
2022/04/17 00:22:33;;;;;;;3.27;2.80;;;;;;;5.39;55.38;102956.84;5022063;28;20643;-55
2022/04/17 00:25:01;;;;;;;3.87;3.43;;;;;;;5.36;56.11;102951.47;5026186;28;20651;-52
2022/04/17 00:27:28;;;;;;;4.03;3.63;;;;;;;5.35;57.01;102958.38;5029835;28;20224;-54
2022/04/17 00:29:54;;;;;;;4.13;3.27;;;;;;;5.26;57.91;102958.78;5026379;28;20271;-52
2022/04/17 00:32:20;;;;;;;3.80;3.50;;;;;;;5.20;57.95;102961.03;5014947;28;20279;-53
2022/04/17 00:34:47;;;;;;;6.73;3.93;;;;;;;5.15;58.17;102966.78;5026477;28;20240;-51
2022/04/17 00:37:13;;;;;;;3.53;3.00;;;;;;;5.14;58.27;102954.56;5018117;28;20303;-53
2022/04/17 00:39:41;;;;;;;4.67;3.63;;;;;;;5.07;58.53;102957.63;5026132;28;20298;-54
2022/04/17 00:42:09;;;;;;;3.37;3.07;;;;;;;5.02;59.12;102954.78;5023667;28;20267;-53
2022/04/17 00:44:36;;;;;;;4.77;3.20;;;;;;;4.94;59.31;102945.59;5026464;28;20224;-52
2022/04/17 00:47:02;;;;;;;4.93;3.40;;;;;;;4.88;59.92;102947.84;5017551;28;20710;-53
2022/04/17 00:49:28;;;;;;;5.60;4.63;;;;;;;4.85;59.90;102934.69;5026299;28;20260;-52
2022/04/17 00:51:55;;;;;;;4.93;3.67;;;;;;;4.77;59.98;102929.94;5016262;28;20237;-53
2022/04/17 00:54:21;;;;;;;4.63;3.90;;;;;;;4.72;60.34;102928.75;5020352;28;20725;-53
2022/04/17 00:56:49;;;;;;;5.97;4.13;;;;;;;4.70;60.17;102930.41;5023313;28;20238;-56
2022/04/17 00:59:16;;;;;;;7.17;4.23;;;;;;;4.67;60.56;102927.59;5025680;28;20235;-52
2022/04/17 01:01:42;;;;;;;4.60;4.00;;;;;;;4.69;61.40;102930.28;5025225;28;20233;-55
2022/04/17 01:04:10;;;;;;;4.00;3.57;;;;;;;4.67;61.09;102927.59;5028721;28;20236;-53
2022/04/17 01:06:38;;;;;;;5.50;3.70;;;;;;;4.66;61.64;102928.41;5020155;28;20240;-52
2022/04/17 01:09:06;;;;;;;4.13;3.63;;;;;;;4.55;62.46;102929.47;5020325;28;20676;-52
2022/04/17 01:11:33;;;;;;;4.47;3.30;;;;;;;4.56;62.52;102941.66;5024097;28;20259;-52
2022/04/17 01:14:00;;;;;;;5.47;4.07;;;;;;;4.67;61.67;102940.63;5024611;28;20290;-51
2022/04/17 01:16:27;;;;;;;5.13;3.17;;;;;;;4.72;61.59;102935.66;5025026;28;20919;-52
2022/04/17 01:18:59;;;;;;;5.63;3.80;;;;;;;4.68;60.45;102941.50;5025225;28;20290;-52
2022/04/17 01:21:27;;;;;;;4.77;3.53;;;;;;;4.59;61.06;102933.16;5025658;28;20228;-51
2022/04/17 01:29:22;;;;;;;4.90;3.10;;;;;;;4.44;61.38;102925.34;5023033;28;20726;-53
2022/04/17 01:31:49;;;;;;;4.90;3.30;;;;;;;4.45;62.58;102927.13;5020974;28;20321;-52
2022/04/17 01:34:16;;;;;;;4.63;3.10;;;;;;;4.45;63.09;102928.03;5009405;28;20702;-52
2022/04/17 01:36:44;;;;;;;3.87;3.07;;;;;;;4.45;62.82;102924.53;5025299;28;20323;-53
2022/04/17 01:39:11;;;;;;;3.33;3.07;;;;;;;4.46;63.03;102928.94;5024717;28;20336;-52
2022/04/17 01:41:37;;;;;;;4.00;3.03;;;;;;;4.48;63.04;102928.22;5023202;28;20279;-54
2022/04/17 01:44:04;;;;;;;3.43;3.13;;;;;;;4.47;63.25;102930.75;5024919;28;20632;-54
2022/04/17 01:46:31;;;;;;;3.87;3.53;;;;;;;4.44;63.64;102935.75;5020024;28;20225;-53
2022/04/17 01:48:57;;;;;;;4.03;3.20;;;;;;;4.41;63.62;102925.16;5018228;28;20233;-53
2022/04/17 01:51:23;;;;;;;3.30;3.00;;;;;;;4.38;64.69;102922.38;5025321;28;20709;-52
2022/04/17 01:53:51;;;;;;;3.47;2.60;;;;;;;4.39;64.30;102929.38;5035143;28;20232;-52
2022/04/17 01:56:18;;;;;;;3.43;3.00;;;;;;;4.34;64.05;102915.22;5024416;28;20294;-52
2022/04/17 01:58:44;;;;;;;4.47;3.47;;;;;;;4.32;64.07;102920.31;5017066;28;20310;-52
2022/04/17 02:01:11;;;;;;;3.37;2.90;;;;;;;4.27;65.14;102916.53;5023403;28;20319;-52
2022/04/17 02:03:37;;;;;;;5.10;3.87;;;;;;;4.26;66.37;102915.66;5021691;28;20236;-53
2022/04/17 02:06:03;;;;;;;6.33;4.10;;;;;;;4.28;66.19;102907.94;5024051;28;20235;-53
2022/04/17 02:08:30;;;;;;;5.03;3.60;;;;;;;4.28;65.23;102914.06;5020499;28;20229;-52
2022/04/17 02:10:58;;;;;;;5.53;3.90;;;;;;;4.32;64.68;102909.94;5030528;28;20238;-53
2022/04/17 02:13:25;;;;;;;3.83;3.50;;;;;;;4.34;65.02;102910.00;5010040;28;20331;-52
2022/04/17 02:15:53;;;;;;;4.07;3.33;;;;;;;4.39;65.53;102913.75;5033261;28;20298;-54
2022/04/17 02:18:20;;;;;;;4.13;3.73;;;;;;;4.40;65.39;102912.97;5022274;28;20232;-53
2022/04/17 02:20:47;;;;;;;4.57;3.90;;;;;;;4.34;65.74;102915.22;5024696;28;20228;-54
2022/04/17 02:23:14;;;;;;;5.07;3.57;;;;;;;4.28;67.03;102914.06;5023785;28;20233;-52
2022/04/17 02:25:40;;;;;;;4.07;3.67;;;;;;;4.24;66.25;102912.03;5025452;28;20244;-52
2022/04/17 02:28:08;;;;;;;2.83;2.47;;;;;;;4.25;63.76;102913.88;5020159;28;20599;-53
2022/04/17 02:30:35;;;;;;;3.27;2.97;;;;;;;4.25;63.67;102908.66;5022444;28;20971;-52
2022/04/17 02:33:02;;;;;;;3.97;3.57;;;;;;;4.24;63.15;102906.84;5022275;28;20328;-53
2022/04/17 02:35:29;;;;;;;3.50;3.20;;;;;;;4.22;64.03;102908.47;5023952;28;20305;-52
2022/04/17 02:37:55;;;;;;;3.20;2.93;;;;;;;4.16;63.81;102902.91;5018851;28;20259;-52
2022/04/17 02:40:22;;;;;;;4.37;3.97;;;;;;;4.13;64.44;102907.91;5023572;28;20581;-53
2022/04/17 02:42:48;;;;;;;4.57;3.63;;;;;;;4.13;64.83;102902.72;5023233;28;20237;-53
2022/04/17 02:45:17;;;;;;;4.90;3.77;;;;;;;4.16;65.53;102897.69;5024124;28;20233;-53
2022/04/17 02:47:43;;;;;;;4.50;4.03;;;;;;;4.15;66.60;102901.13;5017504;28;20713;-52
2022/04/17 02:50:10;;;;;;;4.93;4.43;;;;;;;4.13;68.57;102907.03;5024004;28;20301;-51
2022/04/17 02:52:37;;;;;;;4.23;3.73;;;;;;;4.12;71.36;102905.22;5016484;28;20889;-52
2022/04/17 02:55:03;;;;;;;4.00;3.63;;;;;;;4.05;73.05;102898.75;5016994;28;20277;-53
2022/04/17 02:57:30;;;;;;;4.40;4.00;;;;;;;4.03;73.21;102895.16;5021741;28;20291;-52
2022/04/17 02:59:57;;;;;;;4.43;4.03;;;;;;;3.95;72.95;102896.41;5022695;28;20243;-53
2022/04/17 03:07:53;;;;;;;5.60;4.23;;;;;;;3.82;72.96;102892.16;5023003;28;20250;-53
2022/04/17 03:10:19;;;;;;;5.37;4.80;;;;;;;3.78;73.63;102893.66;5024024;28;20287;-52
2022/04/17 03:12:46;;;;;;;5.80;4.93;;;;;;;3.76;74.99;102887.50;5018589;28;20312;-52
2022/04/17 03:15:12;;;;;;;5.43;4.37;;;;;;;3.76;76.02;102887.50;5023078;28;20294;-52
2022/04/17 03:17:40;;;;;;;5.67;5.07;;;;;;;3.75;75.57;102880.50;5020836;28;20249;-53
2022/04/17 03:20:07;;;;;;;6.20;5.57;;;;;;;3.69;76.67;102877.53;4992076;28;20234;-52
2022/04/17 03:22:34;;;;;;;6.03;5.50;;;;;;;3.68;76.95;102875.72;5013896;28;20243;-53
2022/04/17 03:25:01;;;;;;;6.97;5.03;;;;;;;3.62;77.70;102864.09;5015988;28;20718;-54
2022/04/17 03:27:28;;;;;;;6.17;5.17;;;;;;;3.59;77.61;102869.97;5021786;28;20227;-52
2022/04/17 03:29:54;;;;;;;5.63;5.03;;;;;;;3.55;76.46;102868.91;5020015;28;20390;-51
2022/04/17 03:32:21;;;;;;;7.90;4.93;;;;;;;3.54;75.93;102858.38;5024345;28;20912;-53
2022/04/17 03:34:48;;;;;;;4.40;4.00;;;;;;;3.52;75.31;102850.53;5016572;28;20722;-53
2022/04/17 03:37:15;;;;;;;4.50;4.10;;;;;;;3.49;74.76;102852.03;5042529;28;20301;-53
2022/04/17 03:39:41;;;;;;;4.60;4.17;;;;;;;3.54;74.47;102848.00;5021780;28;20233;-53
2022/04/17 03:42:08;;;;;;;8.83;5.10;;;;;;;3.58;75.08;102847.41;5023283;28;20492;-53
2022/04/17 03:44:34;;;;;;;4.50;4.10;;;;;;;3.58;76.31;102850.00;5026054;28;20263;-53
2022/04/17 03:47:01;;;;;;;5.57;4.97;;;;;;;3.59;76.17;102842.31;5029768;28;20654;-53
2022/04/17 03:49:29;;;;;;;5.60;4.70;;;;;;;3.61;76.31;102850.16;5011030;28;20276;-53
2022/04/17 03:51:57;;;;;;;5.57;4.77;;;;;;;3.62;74.29;102849.38;5023745;28;20235;-53
2022/04/17 03:54:23;;;;;;;6.27;5.60;;;;;;;3.68;74.19;102854.94;5016792;28;20592;-53
2022/04/17 03:56:49;;;;;;;8.37;6.57;;;;;;;3.73;76.92;102847.44;5028443;28;20260;-52
2022/04/17 03:59:16;;;;;;;8.97;6.83;;;;;;;3.63;78.34;102852.88;5024002;28;20294;-52
2022/04/17 04:01:42;;;;;;;8.37;6.23;;;;;;;3.57;81.21;102845.59;5025228;28;20232;-53
2022/04/17 04:04:08;;;;;;;12.97;6.13;;;;;;;3.53;81.21;102849.72;5025486;28;20244;-54
2022/04/17 04:06:35;;;;;;;8.20;6.07;;;;;;;3.48;80.89;102855.44;5027086;28;20326;-51
2022/04/17 04:09:03;;;;;;;8.70;5.97;;;;;;;3.38;81.23;102855.66;5025366;28;20236;-52
2022/04/17 04:11:29;;;;;;;5.20;4.70;;;;;;;3.21;80.81;102850.31;5020695;28;20655;-52
2022/04/17 04:13:56;;;;;;;6.13;5.07;;;;;;;3.15;80.84;102846.41;5026428;28;20310;-51
2022/04/17 04:16:23;;;;;;;5.13;4.37;;;;;;;3.04;81.42;102846.63;5026145;28;20925;-53
2022/04/17 04:18:49;;;;;;;4.97;4.47;;;;;;;2.97;80.95;102847.03;5017957;28;20290;-52
2022/04/17 04:21:15;;;;;;;6.50;4.13;;;;;;;2.94;81.45;102849.44;5031790;28;20263;-52
2022/04/17 04:23:42;;;;;;;5.53;4.80;;;;;;;2.99;81.51;102853.25;5032980;28;20243;-52
2022/04/17 04:26:10;;;;;;;5.70;4.90;;;;;;;3.01;80.88;102845.53;5027366;28;20243;-53
2022/04/17 04:28:36;;;;;;;4.83;4.43;;;;;;;3.05;79.68;102850.13;5025771;28;20663;-54
2022/04/17 04:31:03;;;;;;;6.40;4.80;;;;;;;3.05;79.35;102847.53;5028926;28;20247;-52
2022/04/17 04:33:31;;;;;;;5.53;4.97;;;;;;;3.10;78.81;102851.34;5025716;28;20663;-53
2022/04/17 04:35:57;;;;;;;6.70;4.43;;;;;;;3.17;78.79;102850.91;5021985;28;20239;-52
2022/04/17 04:38:23;;;;;;;6.30;4.50;;;;;;;3.20;78.96;102852.81;5025639;28;20231;-51
2022/04/17 04:40:50;;;;;;;3.77;3.47;;;;;;;3.24;76.99;102860.88;5025750;28;20256;-53
2022/04/17 04:43:17;;;;;;;4.27;3.80;;;;;;;3.30;75.46;102855.16;5027967;28;20627;-53
2022/04/17 04:51:13;;;;;;;4.23;3.37;;;;;;;3.35;75.14;102859.84;5038026;28;20715;-51
2022/04/17 04:53:39;;;;;;;4.10;3.80;;;;;;;3.41;74.24;102858.47;5034193;28;20242;-52
2022/04/17 04:56:06;;;;;;;4.87;4.07;;;;;;;3.59;74.89;102854.41;5037207;28;20251;-52
2022/04/17 04:58:34;;;;;;;4.90;4.07;;;;;;;3.63;75.46;102869.34;5029228;28;20270;-52
2022/04/17 05:01:00;;;;;;;5.90;4.60;;;;;;;3.53;77.03;102865.28;5027680;28;20714;-52
2022/04/17 05:03:26;;;;;;;4.13;3.73;;;;;;;3.48;77.63;102865.81;5023473;28;20293;-53
2022/04/17 05:05:53;;;;;;;3.87;3.47;;;;;;;3.45;77.90;102866.53;5027305;28;20244;-53
2022/04/17 05:08:19;;;;;;;7.13;3.57;;;;;;;3.45;77.27;102868.22;5025073;28;20741;-52
2022/04/17 05:10:46;;;;;;;4.60;3.83;;;;;;;3.41;77.79;102863.66;5021428;28;20239;-54
2022/04/17 05:13:12;;;;;;;4.13;3.83;;;;;;;3.41;79.46;102867.13;5033801;28;20318;-53
2022/04/17 05:15:40;;;;;;;4.53;4.13;;;;;;;3.37;79.49;102866.81;5026203;28;20302;-53
2022/04/17 05:18:07;;;;;;;5.27;3.97;;;;;;;3.38;79.20;102873.84;5033862;28;20269;-52
2022/04/17 05:20:34;;;;;;;5.20;4.50;;;;;;;3.40;79.22;102864.44;5025882;28;20230;-53
2022/04/17 05:23:04;;;;;;;4.73;4.23;;;;;;;3.44;78.28;102863.81;5030083;28;20238;-52
2022/04/17 05:25:30;;;;;;;5.43;4.43;;;;;;;3.43;78.45;102857.72;5021456;28;20240;-52
2022/04/17 05:27:56;;;;;;;4.10;3.70;;;;;;;3.47;78.73;102864.00;5026018;28;20313;-53
2022/04/17 05:30:23;;;;;;;4.90;4.40;;;;;;;3.54;78.07;102866.19;5010630;28;20319;-53
2022/04/17 05:32:50;;;;;;;4.43;3.80;;;;;;;3.58;78.27;102860.41;5012475;28;20235;-52
2022/04/17 05:35:17;;;;;;;4.57;3.80;;;;;;;3.60;78.55;102861.38;5028031;28;20670;-52
2022/04/17 05:37:44;;;;;;;4.40;3.97;;;;;;;3.65;78.14;102859.97;5024915;28;20243;-55
2022/04/17 05:40:11;;;;;;;4.33;3.93;;;;;;;3.70;78.31;102857.66;5024939;28;20239;-53
2022/04/17 05:42:38;;;;;;;6.27;4.07;;;;;;;3.75;78.40;102861.41;5025011;28;20235;-52
2022/04/17 05:45:05;;;;;;;5.30;4.43;;;;;;;3.79;78.08;102868.56;5024330;28;20240;-53
2022/04/17 05:47:31;;;;;;;6.03;4.57;;;;;;;3.83;78.32;102858.50;5025174;28;20235;-53
2022/04/17 05:50:00;;;;;;;5.90;4.13;;;;;;;3.90;78.00;102864.06;5019706;28;20236;-52
2022/04/17 05:52:27;;;;;;;5.07;4.03;;;;;;;3.93;78.66;102872.00;5021407;28;20228;-54
2022/04/17 05:54:53;;;;;;;4.67;4.00;;;;;;;3.97;78.26;102858.44;5022868;28;20706;-53
2022/04/17 05:57:19;;;;;;;5.33;3.70;;;;;;;4.01;78.33;102860.41;5042900;28;20232;-51
2022/04/17 05:59:46;;;;;;;4.30;3.90;;;;;;;4.07;78.38;102852.94;5025821;28;20236;-52
2022/04/17 06:02:14;;;;;;;5.00;4.07;;;;;;;4.13;77.81;102855.91;5024708;28;20220;-52
2022/04/17 06:04:40;;;;;;;4.73;4.03;;;;;;;4.15;77.38;102859.53;5025877;28;20749;-52
2022/04/17 06:07:08;;;;;;;4.57;4.17;;;;;;;4.25;75.71;102863.56;5021429;28;20975;-53
2022/04/17 06:09:35;;;;;;;5.13;4.47;;;;;;;4.37;74.78;102871.19;5022143;28;20610;-52
2022/04/17 06:12:01;;;;;;;4.27;3.87;;;;;;;4.45;73.09;102862.13;5023617;28;20279;-56
2022/04/17 06:14:28;;;;;;;5.90;3.70;;;;;;;4.58;72.36;102874.13;5021638;28;20354;-54
2022/04/17 06:16:54;;;;;;;3.77;3.47;;;;;;;4.67;71.78;102867.78;5024950;28;20251;-51
2022/04/17 06:19:20;;;;;;;4.10;3.60;;;;;;;4.75;70.65;102876.91;5022029;28;20890;-53
2022/04/17 06:21:47;;;;;;;3.60;3.30;;;;;;;4.81;69.94;102871.16;5004956;28;20685;-51
2022/04/17 06:24:15;;;;;;;4.87;3.77;;;;;;;4.99;69.25;102866.97;5021400;28;20637;-53
2022/04/17 06:26:42;;;;;;;4.50;3.63;;;;;;;5.12;68.32;102878.97;5025986;28;20243;-53
2022/04/17 06:29:08;;;;;;;4.13;3.43;;;;;;;5.26;67.16;102862.41;5022894;28;20782;-52
2022/04/17 06:31:35;;;;;;;3.90;3.50;;;;;;;5.33;65.54;102863.63;5032025;28;20266;-53
2022/04/17 06:34:01;;;;;;;3.30;3.00;;;;;;;5.49;64.46;102866.25;5025829;28;20236;-54
2022/04/17 06:36:28;;;;;;;3.77;3.47;;;;;;;5.60;64.83;102859.00;5028275;28;20293;-54
2022/04/17 06:38:54;;;;;;;3.40;3.10;;;;;;;5.65;64.18;102854.03;5020577;28;20295;-53
2022/04/17 06:41:22;;;;;;;3.80;3.50;;;;;;;5.67;63.71;102863.75;5023209;28;20235;-52
2022/04/17 06:43:48;;;;;;;3.80;3.30;;;;;;;5.72;63.71;102854.47;5023992;28;20850;-53
2022/04/17 06:46:14;;;;;;;3.50;3.20;;;;;;;5.71;64.01;102857.88;5020496;28;20275;-52
2022/04/17 06:48:41;;;;;;;4.87;3.70;;;;;;;5.78;64.39;102853.00;5022362;28;20240;-53
2022/04/17 06:51:07;;;;;;;3.00;2.80;;;;;;;5.89;64.16;102859.66;5000852;28;20249;-53
2022/04/17 06:53:33;;;;;;;4.63;4.10;;;;;;;6.04;63.63;102851.75;5003486;28;20236;-52
2022/04/17 06:56:00;;;;;;;3.03;2.73;;;;;;;6.26;61.78;102853.78;4994879;28;20268;-53
2022/04/17 06:58:27;;;;;;;4.67;3.70;;;;;;;6.32;60.88;102848.84;5001272;28;20481;-53
2022/04/17 07:00:54;;;;;;;5.07;3.40;;;;;;;6.45;59.85;102848.66;5000982;28;20241;-52
2022/04/17 07:03:20;;;;;;;3.87;3.53;;;;;;;6.50;59.45;102836.75;5001542;28;20298;-51
2022/04/17 07:05:46;;;;;;;3.67;2.30;;;;;;;6.74;58.64;102841.34;4992323;28;20747;-52
2022/04/17 07:08:13;;;;;;;2.93;2.73;;;;;;;6.85;57.51;102832.34;5016212;28;20233;-53
2022/04/17 07:10:40;;;;;;;3.57;2.90;;;;;;;6.91;57.44;102827.41;5003972;28;20241;-52
2022/04/17 07:13:07;;;;;;;3.20;2.90;;;;;;;7.06;57.30;102828.13;5019919;28;20241;-52
2022/04/17 07:15:35;;;;;;;3.40;3.00;;;;;;;7.19;57.54;102819.13;5021896;28;20295;-51
2022/04/17 07:18:01;;;;;;;3.23;2.70;;;;;;;7.30;55.87;102817.94;5021940;28;20334;-54
2022/04/17 07:20:28;;;;;;;2.57;2.37;;;;;;;7.52;55.62;102803.22;5018656;28;20273;-53
2022/04/17 07:22:54;;;;;;;3.40;2.80;;;;;;;7.48;54.93;102802.19;5021514;28;20259;-53
2022/04/17 07:25:21;;;;;;;2.87;2.67;;;;;;;7.74;55.22;102816.41;5022255;28;20247;-51
2022/04/17 07:27:49;;;;;;;2.83;2.63;;;;;;;8.01;53.65;102810.59;5022281;28;20240;-52
2022/04/17 07:30:17;;;;;;;2.50;2.30;;;;;;;8.15;53.04;102814.69;5019187;28;20290;-52
2022/04/17 07:32:48;;;;;;;2.80;2.37;;;;;;;8.35;51.71;102819.06;5020166;28;20240;-53
2022/04/17 07:35:15;;;;;;;2.90;2.70;;;;;;;8.54;51.20;102811.97;5020777;28;20392;-53
2022/04/17 07:37:42;;;;;;;2.87;2.40;;;;;;;8.67;50.27;102808.13;5003505;28;20233;-52
2022/04/17 07:40:10;;;;;;;2.20;2.00;;;;;;;8.77;50.46;102807.66;4996956;28;20235;-54
2022/04/17 07:42:37;;;;;;;2.37;2.10;;;;;;;8.90;49.76;102799.44;5000524;28;20237;-53
2022/04/17 07:45:04;;;;;;;2.93;2.63;;;;;;;9.03;49.21;102795.59;5001684;28;20813;-53
2022/04/17 07:47:30;;;;;;;3.33;2.10;;;;;;;9.27;48.65;102796.53;4998488;28;20229;-52
2022/04/17 07:49:59;;;;;;;1.80;1.70;;;;;;;9.31;48.14;102797.53;5001896;28;20703;-52
2022/04/17 07:52:25;;;;;;;2.77;2.43;;;;;;;9.53;48.19;102793.97;5000174;28;20247;-54
2022/04/17 07:54:52;;;;;;;2.00;1.90;;;;;;;9.66;47.58;102800.56;5002701;28;20677;-54
2022/04/17 07:57:18;;;;;;;2.50;2.30;;;;;;;9.91;46.61;102803.19;5000733;28;20260;-52
2022/04/17 07:59:45;;;;;;;2.53;2.33;;;;;;;10.06;46.52;102796.69;5000928;28;20269;-51
2022/04/17 08:02:22;;;;;;;2.00;1.90;;;;;;;10.16;45.11;102802.31;4997627;28;20327;-52
2022/04/17 08:04:50;;;;;;;2.20;2.00;;;;;;;10.30;45.10;102799.28;4998038;28;20692;-54
2022/04/17 08:07:18;;;;;;;2.00;1.90;;;;;;;10.35;45.22;102790.72;5001013;28;20757;-53
2022/04/17 08:09:44;;;;;;;4.23;2.33;;;;;;;10.52;45.87;102791.28;5018092;28;20295;-52
2022/04/17 08:12:10;;;;;;;2.17;1.83;;;;;;;10.67;45.50;102785.59;5019069;28;20705;-53
2022/04/17 08:14:37;;;;;;;2.10;2.00;;;;;;;10.95;43.87;102776.84;5018289;28;20707;-53
2022/04/17 08:17:03;;;;;;;1.77;1.67;;;;;;;11.16;41.55;102784.47;5020635;28;20248;-52
2022/04/17 08:19:32;;;;;;;1.73;1.63;;;;;;;11.16;42.14;102776.59;5020934;28;20236;-54
2022/04/17 08:21:59;;;;;;;2.90;1.47;;;;;;;11.20;41.10;102776.75;5016834;28;20237;-54
2022/04/17 08:24:26;;;;;;;2.40;1.93;;;;;;;11.20;42.87;102775.88;5021849;28;20290;-51
2022/04/17 08:26:54;;;;;;;2.33;2.10;;;;;;;11.35;41.36;102776.28;5020211;28;20725;-53
2022/04/17 08:29:21;;;;;;;2.63;1.87;;;;;;;11.53;40.96;102759.25;5020031;28;20672;-52
2022/04/17 08:31:47;;;;;;;2.70;2.27;;;;;;;11.59;40.88;102769.94;5018263;28;20361;-53
2022/04/17 08:34:13;;;;;;;1.97;1.67;;;;;;;11.66;40.52;102762.25;5020949;28;20979;-53
2022/04/17 08:36:40;;;;;;;5.20;1.80;;;;;;;11.70;41.50;102758.84;5017833;28;20810;-53
2022/04/17 08:39:06;;;;;;;2.83;1.87;;;;;;;11.87;41.75;102750.56;5022879;28;20228;-53
2022/04/17 08:41:34;;;;;;;2.43;2.10;;;;;;;12.08;39.85;102751.09;5020800;28;20362;-53
2022/04/17 08:44:00;;;;;;;2.80;2.05;;;;;;;12.22;39.33;102748.81;5027913;28;20237;-53
2022/04/17 08:46:27;;;;;;;2.97;1.70;;;;;;;11.96;40.53;102750.78;5024223;28;20261;-52
2022/04/17 08:48:54;;;;;;;2.42;1.80;;;;;;;12.01;40.98;102748.28;5027064;28;20587;-52
2022/04/17 08:51:22;;;;;;;3.92;2.20;;;;;;;12.15;40.44;102737.25;5024243;28;20279;-54
2022/04/17 08:53:50;;;;;;;3.60;2.80;;;;;;;12.33;39.63;102739.44;5025412;28;20247;-52
2022/04/17 08:56:17;;;;;;;3.00;2.53;;;;;;;12.52;39.11;102739.84;5004627;28;20292;-53
2022/04/17 08:58:44;;;;;;;2.08;1.88;;;;;;;12.54;38.82;102736.41;5019419;28;20613;-52
2022/04/17 09:01:13;;;;;;;2.28;1.90;;;;;;;12.83;38.32;102737.03;4977213;28;20232;-51
2022/04/17 09:03:39;;;;;;;3.28;2.30;;;;;;;12.94;37.68;102732.00;5025603;28;20244;-52
2022/04/17 09:06:05;;;;;;;2.38;1.80;;;;;;;12.97;39.29;102736.47;4998555;28;20326;-52
2022/04/17 09:08:32;;;;;;;2.15;2.05;;;;;;;12.97;38.16;102729.44;5025248;28;20579;-53
2022/04/17 09:10:59;;;;;;;2.30;2.10;;;;;;;13.08;38.50;102730.53;5021944;28;20232;-52
2022/04/17 09:13:28;;;;;;;2.33;1.73;;;;;;;13.17;38.41;102724.59;5027192;28;20294;-51
2022/04/17 09:15:56;;;;;;;1.98;1.70;;;;;;;13.36;37.04;102713.56;5025758;28;20715;-52
2022/04/17 09:18:22;;;;;;;2.20;1.80;;;;;;;13.43;38.05;102713.69;5022334;28;20233;-52
2022/04/17 09:20:49;;;;;;;2.22;1.60;;;;;;;13.56;37.54;102711.31;5023002;28;20235;-53
2022/04/17 09:23:15;;;;;;;1.73;1.63;;;;;;;13.87;35.66;102708.34;5024850;28;20225;-54
2022/04/17 09:25:44;;;;;;;1.70;1.60;;;;;;;13.68;36.19;102705.34;5024018;28;20327;-54
2022/04/17 09:28:11;;;;;;;2.65;1.50;;;;;;;13.57;36.42;102693.72;5024811;28;20334;-53
2022/04/17 09:30:39;;;;;;;1.77;1.65;;;;;;;13.48;36.37;102698.81;5024553;28;20233;-52
2022/04/17 09:33:09;;;;;;;2.80;1.85;;;;;;;13.36;37.15;102687.16;5030065;28;20444;-52
2022/04/17 09:35:36;;;;;;;2.85;2.20;;;;;;;13.40;37.97;102690.75;5023649;28;20745;-53
2022/04/17 09:38:05;;;;;;;1.80;1.55;;;;;;;13.40;38.63;102674.03;5027936;28;20286;-55
2022/04/17 09:40:32;;;;;;;1.80;1.70;;;;;;;13.36;37.22;102673.97;5023742;28;20383;-53
2022/04/17 09:43:11;;;;;;;2.67;2.40;;;;;;;13.57;36.91;102675.25;5024716;28;20236;-53
2022/04/17 09:45:57;;;;;;;2.28;1.65;;;;;;;14.16;35.61;102671.81;5022807;28;20243;-54
2022/04/17 09:48:25;;;;;;;2.25;1.73;;;;;;;14.43;35.13;102672.22;5022465;28;20247;-54
2022/04/17 09:50:52;;;;;;;2.92;1.65;;;;;;;14.51;34.55;102680.28;5025539;28;20294;-54
2022/04/17 09:53:33;;;;;;;3.67;2.58;;;;;;;14.42;35.86;102667.78;5023590;28;20232;-53
2022/04/17 09:56:07;;;;;;;2.45;1.95;;;;;;;14.62;34.60;102665.47;5026297;28;20252;-53
2022/04/17 09:58:38;;;;;;;4.03;2.10;;;;;;;14.65;33.75;102665.50;5024910;28;20228;-54
2022/04/17 10:01:06;;;;;;;2.58;2.08;;;;;;;14.58;34.49;102655.72;5030779;28;20318;-54
2022/04/17 10:03:36;;;;;;;2.55;2.10;;;;;;;14.57;34.08;102661.88;5026390;28;20274;-54
2022/04/17 10:06:03;;;;;;;3.00;2.25;;;;;;;14.40;35.78;102664.25;5026765;28;20256;-54
2022/04/17 10:08:29;;;;;;;4.35;2.28;;;;;;;14.42;36.80;102646.63;5026685;28;20232;-53
2022/04/17 10:10:56;;;;;;;2.60;2.35;;;;;;;14.40;36.25;102644.88;5023807;28;20711;-54
2022/04/17 10:13:23;;;;;;;2.05;1.70;;;;;;;14.56;34.50;102642.47;5025768;28;20619;-53
2022/04/17 10:15:50;;;;;;;2.47;2.00;;;;;;;14.45;35.97;102640.53;5025871;28;20714;-54
2022/04/17 10:18:18;;;;;;;2.78;2.10;;;;;;;14.28;36.81;102645.56;5021646;28;20710;-53
2022/04/17 10:20:46;;;;;;;2.53;2.33;;;;;;;14.44;36.25;102625.53;5028603;28;20229;-53
2022/04/17 10:23:13;;;;;;;2.80;2.00;;;;;;;14.73;34.70;102634.75;5037167;28;20256;-53
2022/04/17 10:25:40;;;;;;;2.05;1.77;;;;;;;14.70;35.50;102616.19;5024831;28;20240;-53
2022/04/17 10:28:09;;;;;;;1.95;1.83;;;;;;;14.67;35.77;102621.47;5022542;28;20248;-53
2022/04/17 10:30:43;;;;;;;3.33;2.22;;;;;;;15.06;33.48;102632.47;5019608;28;20301;-53
2022/04/17 10:33:43;;;;;;;2.72;1.65;;;;;;;14.88;33.41;102630.50;5023562;28;20234;-52
2022/04/17 10:36:38;;;;;;;2.25;2.05;;;;;;;14.94;33.14;102625.31;5006933;28;20316;-53
2022/04/17 10:39:16;;;;;;;2.83;2.20;;;;;;;14.68;34.02;102620.59;5008552;28;20278;-53
2022/04/17 10:41:42;;;;;;;4.43;3.08;;;;;;;14.85;33.54;102630.47;5024489;28;20866;-53
2022/04/17 10:44:10;;;;;;;5.70;2.72;;;;;;;14.78;33.90;102622.50;5021274;28;20239;-53
2022/04/17 10:46:48;;;;;;;1.65;1.55;;;;;;;14.93;33.18;102626.19;5020890;28;20314;-53
2022/04/17 10:49:18;;;;;;;3.10;2.67;;;;;;;14.88;33.99;102630.50;5019859;28;20235;-53
2022/04/17 10:51:51;;;;;;;5.03;3.00;;;;;;;14.76;34.40;102613.63;5020915;28;20225;-52
2022/04/17 10:54:18;;;;;;;3.05;2.00;;;;;;;14.84;34.42;102618.13;5025468;28;20294;-53
2022/04/17 10:56:58;;;;;;;2.70;2.05;;;;;;;14.70;35.02;102616.19;5027232;28;20742;-54
2022/04/17 10:59:28;;;;;;;2.47;2.10;;;;;;;14.67;36.01;102605.63;5019402;28;20224;-53
2022/04/17 11:01:56;;;;;;;2.75;1.90;;;;;;;15.22;33.63;102600.91;5024158;28;20634;-54
2022/04/17 11:04:25;;;;;;;2.08;1.60;;;;;;;15.45;32.16;102608.19;5021818;28;20224;-55
2022/04/17 11:07:23;;;;;;;1.55;1.45;;;;;;;15.35;32.29;102603.69;5022962;28;20236;-58
2022/04/17 11:10:05;;;;;;;1.60;1.40;;;;;;;15.06;34.45;102599.00;5018672;28;20232;-53
2022/04/17 11:12:32;;;;;;;2.00;1.63;;;;;;;15.17;32.60;102601.75;5012208;28;20287;-53
2022/04/17 11:15:23;;;;;;;2.08;1.77;;;;;;;15.01;33.24;102593.63;5017827;28;20286;-54
2022/04/17 11:17:50;;;;;;;3.70;1.65;;;;;;;14.96;31.97;102592.72;5019429;28;20316;-54
2022/04/17 11:20:17;;;;;;;2.10;1.40;;;;;;;15.02;31.63;102581.28;5025139;28;20232;-53
2022/04/17 11:22:43;;;;;;;3.30;1.50;;;;;;;15.35;31.60;102579.88;5025564;28;20236;-53
2022/04/17 11:25:11;;;;;;;2.22;1.98;;;;;;;15.53;31.81;102569.41;5025536;28;20251;-53
2022/04/17 11:27:41;;;;;;;3.80;2.70;;;;;;;15.48;32.41;102568.50;5025906;28;20240;-54
2022/04/17 11:30:09;;;;;;;1.80;1.67;;;;;;;15.46;31.37;102567.59;5024990;28;20307;-53
2022/04/17 11:32:49;;;;;;;2.22;2.03;;;;;;;15.50;31.73;102564.09;5025469;28;20287;-53
2022/04/17 11:35:18;;;;;;;3.05;2.50;;;;;;;15.51;31.41;102561.47;5025003;28;20228;-53
2022/04/17 11:37:55;;;;;;;3.17;2.30;;;;;;;15.41;31.69;102553.41;5025796;28;20298;-53
2022/04/17 11:40:23;;;;;;;1.88;1.52;;;;;;;15.57;31.68;102555.31;5024908;28;20277;-54
2022/04/17 11:42:51;;;;;;;3.35;2.30;;;;;;;15.77;31.87;102557.28;5025492;28;20422;-54
2022/04/17 11:45:18;;;;;;;2.28;1.85;;;;;;;15.88;30.79;102560.88;5024980;28;20245;-53
2022/04/17 11:47:48;;;;;;;1.40;1.30;;;;;;;15.99;30.53;102545.94;5024656;28;20664;-53
2022/04/17 11:50:21;;;;;;;1.90;1.77;;;;;;;16.05;30.26;102538.03;5024843;28;20313;-53